createdAt,value
2023-03-16T00:11:43.432Z,484
2023-03-16T00:31:43.517Z,485
2023-03-16T00:51:43.392Z,482
2023-03-16T01:11:43.579Z,483
2023-03-16T01:31:43.609Z,479
2023-03-16T01:51:43.661Z,482
2023-03-16T02:11:43.591Z,484
2023-03-16T02:31:43.758Z,483
2023-03-16T02:51:43.804Z,479
2023-03-16T03:11:43.851Z,480
2023-03-16T03:31:43.941Z,479
2023-03-16T03:51:43.937Z,478
2023-03-16T04:11:43.964Z,479
2023-03-16T04:51:44.078Z,477
2023-03-16T05:11:44.033Z,477
2023-03-16T05:31:44.141Z,476
2023-03-16T05:51:44.234Z,477
2023-03-16T06:11:44.263Z,475
2023-03-16T06:31:44.417Z,473
2023-03-16T06:51:44.270Z,475
2023-03-16T07:11:44.390Z,476
2023-03-16T07:51:44.532Z,474
2023-03-16T08:11:44.540Z,477
2023-03-16T08:31:44.471Z,476
2023-03-16T08:51:51.611Z,472
2023-03-16T09:11:51.668Z,474
2023-03-16T09:51:51.755Z,476
2023-03-16T10:11:51.777Z,475
2023-03-16T10:31:44.830Z,471
2023-03-16T10:51:44.671Z,475
2023-03-16T11:11:44.896Z,472
2023-03-16T11:31:44.947Z,476
2023-03-16T11:51:44.965Z,479
2023-03-16T12:11:52.013Z,478
2023-03-16T12:31:44.986Z,476
2023-03-16T12:51:45.058Z,475
2023-03-16T13:11:45.109Z,470
2023-03-16T13:31:45.206Z,476
2023-03-16T13:51:45.200Z,477
2023-03-16T14:11:52.190Z,476
2023-03-16T14:31:45.117Z,475
2023-03-16T14:51:52.087Z,473
2023-03-16T15:11:45.283Z,472
2023-03-16T15:31:45.372Z,473
2023-03-16T15:51:45.346Z,468
2023-03-16T16:11:45.371Z,467
2023-03-16T17:11:45.504Z,468
2023-03-16T17:31:45.496Z,463
2023-03-16T17:51:45.551Z,466
2023-03-16T18:11:45.595Z,465
2023-03-16T19:11:45.695Z,461
2023-03-16T19:31:45.722Z,462
2023-03-16T20:11:45.832Z,463
2023-03-16T20:31:45.842Z,463
2023-03-16T20:51:45.868Z,464
2023-03-16T21:11:45.972Z,467
2023-03-16T21:31:45.956Z,464
2023-03-16T21:51:46.032Z,466
2023-03-16T22:11:46.019Z,465
2023-03-16T22:31:46.133Z,467
2023-03-16T22:51:46.200Z,465
2023-03-16T23:11:46.274Z,465
2023-03-16T23:31:46.182Z,465
2023-03-16T23:51:46.233Z,465
